ADDS METAR Data INFO
IDs: Format: Raw Decoded Include TAF

Data at: 0439 UTC 21 Jan 2018

METAR for:KSGH (Springfield Muni, OH, US)
Text:KSGH 210356Z AUTO 24003KT 10SM OVC009 04/03 A3010 RMK AO2 RAB08E30 SLP203 P0000 T00390028 400720000
Temperature: 3.9°C ( 39°F)
Dewpoint: 2.8°C ( 37°F) [RH = 93%]
Pressure (altimeter):30.10 inches Hg (1019.4 mb) [Sea level pressure: 1020.3 mb]
Winds:from the WSW (240 degrees) at 3 MPH (3 knots; 1.5 m/s)
Visibility:10 or more sm (16+ km)
Ceiling:900 feet AGL
Clouds: overcast cloud deck at 900 feet AGL
QC Flag:automated observation with no human augmentation